createdAt,value
2022-12-17T00:02:18.522Z,37.15
2022-12-17T00:05:03.464Z,36.85
2022-12-17T00:07:48.954Z,37.28
2022-12-17T00:10:34.219Z,34.63
2022-12-17T00:13:20.282Z,35.63
2022-12-17T00:16:12.021Z,35.08
2022-12-17T00:18:56.949Z,36.55
2022-12-17T00:21:41.739Z,36.05
2022-12-17T00:24:27.043Z,39.22
2022-12-17T00:27:11.968Z,40.17
2022-12-17T00:29:57.545Z,38.03
2022-12-17T00:32:42.574Z,35.15
2022-12-17T00:35:27.841Z,38.25
2022-12-17T00:38:12.924Z,36.15
2022-12-17T00:40:58.336Z,38.55
2022-12-17T00:43:43.489Z,37.42
2022-12-17T00:46:28.729Z,39.17
2022-12-17T00:49:13.970Z,39.50
2022-12-17T00:51:58.785Z,37.75
2022-12-17T00:54:43.733Z,35.40
2022-12-17T00:57:28.784Z,35.75
2022-12-17T01:00:13.767Z,35.85
2022-12-17T01:02:58.916Z,36.08
2022-12-17T01:06:03.729Z,34.33
2022-12-17T01:08:49.092Z,33.20
2022-12-17T01:11:34.183Z,31.80
2022-12-17T01:14:19.168Z,31.70
2022-12-17T01:17:04.728Z,32.72
2022-12-17T01:19:49.903Z,32.95
2022-12-17T01:22:35.422Z,32.15
2022-12-17T01:25:20.370Z,33.50
2022-12-17T01:28:09.374Z,31.55
2022-12-17T01:30:56.571Z,31.30
2022-12-17T01:33:41.930Z,32.05
2022-12-17T01:36:28.388Z,31.73
2022-12-17T01:39:13.552Z,30.90
2022-12-17T01:41:58.777Z,32.47
2022-12-17T01:44:58.939Z,31.77
2022-12-17T01:47:45.867Z,31.10
2022-12-17T01:50:31.707Z,27.65
2022-12-17T01:53:19.575Z,27.13
2022-12-17T01:56:05.027Z,25.98
2022-12-17T01:58:50.711Z,25.30
2022-12-17T02:01:36.413Z,23.52
2022-12-17T02:04:21.596Z,23.38
2022-12-17T02:07:29.726Z,23.63
2022-12-17T02:10:20.850Z,24.15
2022-12-17T02:13:10.641Z,22.92
2022-12-17T02:16:17.379Z,21.70
2022-12-17T02:19:08.990Z,22.83
2022-12-17T02:21:55.812Z,21.52
2022-12-17T02:25:02.793Z,21.42
2022-12-17T02:27:49.398Z,22.80
2022-12-17T02:30:34.898Z,20.40
2022-12-17T02:33:20.995Z,20.27
2022-12-17T02:36:12.931Z,20.13
2022-12-17T02:38:57.842Z,22.10
2022-12-17T02:41:59.069Z,24.10
2022-12-17T02:44:45.771Z,23.35
2022-12-17T02:47:32.780Z,22.83
2022-12-17T02:50:18.493Z,23.35
2022-12-17T02:53:06.510Z,22.63
2022-12-17T02:55:53.114Z,21.90
2022-12-17T02:58:38.615Z,22.13
2022-12-17T03:01:24.192Z,22.00
2022-12-17T03:04:09.407Z,22.17
2022-12-17T03:06:54.339Z,20.60
2022-12-17T03:09:39.772Z,22.95
2022-12-17T03:12:25.414Z,20.08
2022-12-17T03:15:10.238Z,20.23
2022-12-17T03:17:55.166Z,17.77
2022-12-17T03:20:40.126Z,19.73
2022-12-17T03:23:28.486Z,21.38
2022-12-17T03:26:17.962Z,21.08
2022-12-17T03:29:03.214Z,21.08
2022-12-17T03:31:48.339Z,18.17
2022-12-17T03:34:33.828Z,20.02
2022-12-17T03:37:18.885Z,19.83
2022-12-17T03:40:04.168Z,20.08
2022-12-17T03:42:49.651Z,17.10
2022-12-17T03:45:35.066Z,18.58
2022-12-17T03:48:28.575Z,15.85
2022-12-17T03:51:14.413Z,16.38
2022-12-17T03:54:00.525Z,15.95
2022-12-17T03:56:45.968Z,12.95
2022-12-17T03:59:31.451Z,14.02
2022-12-17T04:02:17.413Z,14.43
2022-12-17T04:05:02.845Z,14.90
2022-12-17T04:07:47.927Z,13.98
2022-12-17T04:10:33.390Z,14.23
2022-12-17T04:13:18.293Z,14.13
2022-12-17T04:16:03.379Z,13.40
2022-12-17T04:18:48.787Z,14.75
2022-12-17T04:21:33.566Z,15.40
2022-12-17T04:24:18.812Z,13.93
2022-12-17T04:27:03.863Z,14.60
2022-12-17T04:29:49.122Z,14.60
2022-12-17T04:32:35.497Z,15.43
2022-12-17T04:35:20.905Z,14.60
2022-12-17T04:38:06.534Z,14.18
2022-12-17T04:40:51.903Z,13.95
2022-12-17T04:43:37.298Z,14.07
2022-12-17T04:46:22.743Z,12.82
2022-12-17T04:49:07.716Z,13.15
2022-12-17T04:51:52.908Z,13.30
2022-12-17T04:54:38.005Z,12.25
2022-12-17T04:57:23.189Z,13.02
2022-12-17T05:00:08.252Z,11.90
2022-12-17T05:02:53.176Z,12.18
2022-12-17T05:05:38.255Z,12.48
2022-12-17T05:08:23.802Z,11.75
2022-12-17T05:11:08.762Z,12.35
2022-12-17T05:13:54.098Z,11.15
2022-12-17T05:16:39.192Z,11.65
2022-12-17T05:19:24.090Z,10.93
2022-12-17T05:22:09.313Z,11.27
2022-12-17T05:24:55.016Z,10.73
2022-12-17T05:27:39.823Z,10.70
2022-12-17T05:30:25.996Z,10.40
2022-12-17T05:33:18.788Z,9.70
2022-12-17T05:36:03.561Z,10.40
2022-12-17T05:38:48.910Z,12.38
2022-12-17T05:41:33.949Z,10.48
2022-12-17T05:44:19.458Z,11.32
2022-12-17T05:47:04.761Z,9.88
2022-12-17T05:49:49.943Z,10.73
2022-12-17T05:52:34.867Z,10.10
2022-12-17T05:55:20.341Z,10.48
2022-12-17T05:58:05.200Z,9.35
2022-12-17T06:00:50.031Z,9.68
2022-12-17T06:03:35.197Z,9.80
2022-12-17T06:06:20.489Z,11.75
2022-12-17T06:09:05.385Z,9.98
2022-12-17T06:11:50.244Z,11.73
2022-12-17T06:14:35.125Z,11.38
2022-12-17T06:17:20.447Z,11.43
2022-12-17T06:20:19.112Z,12.00
2022-12-17T06:23:04.075Z,11.00
2022-12-17T06:25:48.950Z,10.77
2022-12-17T06:28:33.885Z,9.98
2022-12-17T06:31:18.806Z,8.68
2022-12-17T06:34:04.308Z,9.27
2022-12-17T06:36:49.446Z,10.52
2022-12-17T06:39:34.655Z,10.05
2022-12-17T06:42:19.782Z,9.05
2022-12-17T06:45:04.638Z,8.35
2022-12-17T06:47:49.399Z,9.10
2022-12-17T06:50:34.807Z,9.50
2022-12-17T06:53:25.509Z,7.78
2022-12-17T06:56:10.993Z,8.95
2022-12-17T06:58:56.410Z,8.90
2022-12-17T07:01:41.912Z,9.32
2022-12-17T07:04:27.143Z,10.90
2022-12-17T07:07:12.332Z,9.25
2022-12-17T07:09:57.619Z,8.07
2022-12-17T07:12:42.652Z,6.40
2022-12-17T07:15:29.167Z,6.03
2022-12-17T07:18:19.111Z,4.35
2022-12-17T07:21:04.711Z,4.88
2022-12-17T07:24:09.962Z,5.88
2022-12-17T07:26:55.205Z,5.80
2022-12-17T07:29:40.448Z,5.93
2022-12-17T07:32:25.358Z,6.85
2022-12-17T07:35:10.670Z,7.10
2022-12-17T07:37:56.024Z,7.70
2022-12-17T07:40:41.578Z,9.40
2022-12-17T07:43:31.126Z,8.57
2022-12-17T07:46:16.001Z,6.97
2022-12-17T07:49:01.108Z,7.13
2022-12-17T07:51:45.929Z,5.93
2022-12-17T07:54:30.928Z,5.03
2022-12-17T07:57:16.061Z,4.30
2022-12-17T08:00:01.154Z,4.57
2022-12-17T08:02:46.591Z,1.30
2022-12-17T08:05:31.764Z,3.28
2022-12-17T08:08:16.901Z,3.83
2022-12-17T08:11:01.766Z,4.00
2022-12-17T08:13:46.974Z,5.95
2022-12-17T08:16:31.921Z,5.90
2022-12-17T08:19:16.914Z,6.93
2022-12-17T08:22:01.798Z,8.25
2022-12-17T08:24:47.137Z,8.00
2022-12-17T08:27:32.387Z,8.40
2022-12-17T08:30:17.209Z,8.07
2022-12-17T08:33:02.274Z,9.50
2022-12-17T08:35:47.498Z,9.85
2022-12-17T08:38:32.720Z,9.68
2022-12-17T08:41:21.271Z,9.93
2022-12-17T08:44:06.735Z,8.85
2022-12-17T08:46:51.689Z,7.70
2022-12-17T08:49:36.959Z,8.20
2022-12-17T08:52:22.627Z,5.88
2022-12-17T08:55:07.941Z,5.38
2022-12-17T08:57:53.020Z,5.53
2022-12-17T09:00:38.571Z,6.03
2022-12-17T09:03:23.687Z,5.50
2022-12-17T09:06:10.823Z,4.20
2022-12-17T09:08:56.059Z,2.40
2022-12-17T09:11:41.071Z,1.52
2022-12-17T09:14:28.073Z,1.80
2022-12-17T09:17:23.690Z,2.25
2022-12-17T09:20:09.235Z,2.47
2022-12-17T09:22:55.294Z,4.03
2022-12-17T09:25:40.579Z,3.83
2022-12-17T09:28:25.809Z,3.95
2022-12-17T09:31:11.308Z,3.08
2022-12-17T09:33:57.075Z,2.15
2022-12-17T09:36:44.276Z,1.25
2022-12-17T09:39:32.910Z,1.00
2022-12-17T09:42:38.851Z,1.00
2022-12-17T09:45:36.076Z,0.60
2022-12-17T09:48:21.225Z,0.80
2022-12-17T09:51:09.950Z,0.70
2022-12-17T09:54:11.212Z,0.90
2022-12-17T09:56:59.422Z,0.82
2022-12-17T09:59:52.901Z,0.60
2022-12-17T10:02:45.455Z,0.82
2022-12-17T10:05:51.007Z,0.50
2022-12-17T10:08:39.341Z,0.40
2022-12-17T10:11:36.439Z,0.32
2022-12-17T10:14:29.451Z,0.60
2022-12-17T10:17:14.887Z,0.70
2022-12-17T10:20:01.071Z,1.45
2022-12-17T10:22:46.514Z,1.90
2022-12-17T10:25:40.216Z,1.20
2022-12-17T10:28:32.910Z,0.40
2022-12-17T10:31:19.776Z,0.30
2022-12-17T10:34:05.868Z,0.30
2022-12-17T10:36:51.033Z,0.30
2022-12-17T10:39:41.206Z,0.40
2022-12-17T10:42:44.513Z,0.57
2022-12-17T10:45:39.755Z,0.30
2022-12-17T10:48:35.627Z,0.38
2022-12-17T10:51:22.152Z,0.30
2022-12-17T10:54:10.803Z,0.40
2022-12-17T10:56:56.219Z,0.30
2022-12-17T10:59:56.090Z,0.40
2022-12-17T11:02:47.087Z,0.30
2022-12-17T11:05:59.442Z,0.30
2022-12-17T11:08:44.931Z,0.20
2022-12-17T11:11:32.800Z,0.15
2022-12-17T11:14:20.641Z,0.30
2022-12-17T11:17:13.015Z,0.30
2022-12-17T11:20:19.805Z,0.20
2022-12-17T11:23:11.942Z,0.30
2022-12-17T11:26:12.976Z,0.30
2022-12-17T11:28:58.325Z,0.30
2022-12-17T11:32:14.289Z,0.40
2022-12-17T11:35:21.329Z,0.30
2022-12-17T11:38:28.012Z,0.30
2022-12-17T11:41:45.310Z,0.57
2022-12-17T11:44:33.200Z,0.30
2022-12-17T11:47:31.142Z,0.32
2022-12-17T11:50:35.011Z,0.68
2022-12-17T11:53:57.766Z,0.90
2022-12-17T11:56:51.678Z,1.33
2022-12-17T11:59:39.673Z,0.82
2022-12-17T12:02:43.413Z,1.60
2022-12-17T12:05:56.969Z,3.10
2022-12-17T12:08:47.962Z,2.45
2022-12-17T12:12:09.337Z,3.15
2022-12-17T12:15:25.800Z,3.60
2022-12-17T12:18:29.222Z,0.60
2022-12-17T12:21:33.777Z,1.88
2022-12-17T12:24:43.932Z,0.80
2022-12-17T12:27:59.723Z,2.22
2022-12-17T12:30:55.560Z,3.40
2022-12-17T12:34:07.158Z,3.35
2022-12-17T12:36:54.743Z,3.78
2022-12-17T12:39:50.084Z,4.30
2022-12-17T12:42:47.926Z,5.03
2022-12-17T12:45:55.522Z,3.38
2022-12-17T12:48:43.931Z,1.38
2022-12-17T12:51:37.479Z,2.30
2022-12-17T12:55:09.905Z,2.92
2022-12-17T12:58:02.578Z,2.60
2022-12-17T13:00:59.317Z,4.88
2022-12-17T13:03:57.645Z,6.13
2022-12-17T13:06:45.059Z,3.35
2022-12-17T13:09:18.264Z,2.67
2022-12-17T13:11:51.216Z,2.28
2022-12-17T13:14:31.005Z,1.10
2022-12-17T13:17:08.694Z,2.05
2022-12-17T13:19:40.480Z,1.02
2022-12-17T13:22:10.214Z,1.30
2022-12-17T13:24:37.128Z,0.93
2022-12-17T13:27:04.917Z,1.80
2022-12-17T13:29:38.690Z,2.85
2022-12-17T13:32:08.102Z,3.70
2022-12-17T13:34:45.503Z,3.15
2022-12-17T13:37:21.928Z,2.50
2022-12-17T13:40:14.340Z,2.97
2022-12-17T13:42:40.940Z,1.58
2022-12-17T13:45:07.982Z,2.85
2022-12-17T13:47:35.886Z,3.28
2022-12-17T13:50:33.999Z,5.85
2022-12-17T13:53:10.478Z,2.33
2022-12-17T13:55:38.477Z,3.47
2022-12-17T13:58:05.112Z,2.35
2022-12-17T14:00:32.656Z,2.75
2022-12-17T14:03:10.883Z,3.15
2022-12-17T14:05:43.203Z,2.30
2022-12-17T14:08:19.029Z,3.55
2022-12-17T14:10:52.357Z,4.43
2022-12-17T14:13:19.101Z,4.50
2022-12-17T14:15:49.267Z,4.97
2022-12-17T14:18:20.712Z,4.45
2022-12-17T14:20:56.494Z,4.68
2022-12-17T14:23:29.884Z,3.95
2022-12-17T14:25:57.141Z,5.05
2022-12-17T14:28:31.222Z,3.15
2022-12-17T14:31:29.045Z,3.38
2022-12-17T14:34:11.803Z,4.00
2022-12-17T14:36:43.796Z,2.83
2022-12-17T14:39:30.294Z,2.58
2022-12-17T14:42:17.857Z,2.95
2022-12-17T14:44:56.546Z,2.72
2022-12-17T14:47:31.506Z,6.28
2022-12-17T14:50:10.614Z,5.35
2022-12-17T14:52:47.819Z,5.25
2022-12-17T14:55:55.244Z,2.10
2022-12-17T14:58:23.735Z,4.80
2022-12-17T15:01:06.724Z,5.05
2022-12-17T15:03:38.760Z,5.13
2022-12-17T15:06:08.787Z,5.85
2022-12-17T15:08:43.969Z,5.68
2022-12-17T15:11:16.517Z,5.63
2022-12-17T15:13:43.868Z,5.53
2022-12-17T15:16:11.020Z,9.18
2022-12-17T15:18:38.039Z,7.45
2022-12-17T15:21:05.135Z,7.68
2022-12-17T15:23:32.161Z,8.65
2022-12-17T15:25:58.683Z,9.90
2022-12-17T15:28:26.846Z,11.13
2022-12-17T15:30:53.566Z,11.75
2022-12-17T15:33:20.279Z,11.98
2022-12-17T15:35:46.959Z,19.48
2022-12-17T15:38:13.549Z,12.93
2022-12-17T15:40:40.676Z,10.65
2022-12-17T15:43:12.694Z,12.07
2022-12-17T15:45:43.634Z,11.82
2022-12-17T15:48:15.910Z,12.57
2022-12-17T15:50:42.578Z,12.18
2022-12-17T15:53:09.684Z,14.30
2022-12-17T15:55:37.637Z,14.68
2022-12-17T15:58:05.430Z,14.10
2022-12-17T16:00:32.270Z,13.00
2022-12-17T16:02:59.166Z,14.13
2022-12-17T16:05:25.983Z,19.10
2022-12-17T16:07:52.782Z,18.15
2022-12-17T16:10:19.976Z,40.97
2022-12-17T16:12:46.535Z,24.23
2022-12-17T16:15:13.405Z,23.45
2022-12-17T16:17:40.194Z,18.88
2022-12-17T16:20:07.906Z,19.58
2022-12-17T16:22:34.623Z,21.25
2022-12-17T16:25:01.238Z,20.65
2022-12-17T16:27:27.951Z,22.00
2022-12-17T16:29:54.753Z,23.13
2022-12-17T16:32:21.331Z,23.10
2022-12-17T16:34:48.061Z,26.83
2022-12-17T16:37:14.672Z,24.77
2022-12-17T16:39:41.237Z,25.25
2022-12-17T16:42:07.986Z,25.98
2022-12-17T16:44:34.946Z,25.17
2022-12-17T16:47:01.612Z,26.40
2022-12-17T16:49:28.593Z,27.67
2022-12-17T16:51:57.697Z,29.23
2022-12-17T16:54:27.159Z,28.58
2022-12-17T16:56:55.025Z,30.02
2022-12-17T16:59:23.636Z,34.80
2022-12-17T17:01:52.291Z,36.03
2022-12-17T17:04:21.706Z,35.40
2022-12-17T17:06:56.564Z,32.67
2022-12-17T17:09:24.556Z,30.48
2022-12-17T17:11:52.377Z,31.30
2022-12-17T17:14:19.634Z,32.92
2022-12-17T17:16:46.593Z,35.78
2022-12-17T17:19:13.351Z,35.05
2022-12-17T17:21:41.822Z,34.42
2022-12-17T17:24:20.315Z,36.05
2022-12-17T17:26:48.180Z,35.15
2022-12-17T17:29:14.760Z,34.65
2022-12-17T17:34:28.225Z,36.33
2022-12-17T17:36:54.741Z,33.78
2022-12-17T17:39:21.453Z,33.65
2022-12-17T17:41:48.457Z,35.08
2022-12-17T17:44:15.436Z,34.60
2022-12-17T17:46:42.619Z,35.70
2022-12-17T17:49:10.675Z,35.65
2022-12-17T17:54:28.589Z,35.30
2022-12-17T17:56:55.218Z,33.35
2022-12-17T17:59:29.188Z,46.30
2022-12-17T18:01:59.824Z,39.10
2022-12-17T18:04:26.503Z,30.52
2022-12-17T18:07:23.565Z,35.13
2022-12-17T18:09:39.684Z,35.17
2022-12-17T18:12:26.559Z,47.35
2022-12-17T18:15:13.112Z,62.60
2022-12-17T18:17:40.112Z,68.65
2022-12-17T18:20:07.239Z,64.78
2022-12-17T18:22:33.830Z,67.72
2022-12-17T18:25:00.636Z,60.85
2022-12-17T18:27:27.168Z,55.75
2022-12-17T18:29:53.885Z,58.45
2022-12-17T18:32:20.607Z,44.63
2022-12-17T18:34:47.140Z,41.65
2022-12-17T18:37:13.799Z,36.50
2022-12-17T18:39:40.433Z,30.63
2022-12-17T18:42:26.694Z,31.17
2022-12-17T18:44:53.329Z,28.83
2022-12-17T18:47:20.321Z,29.42
2022-12-17T18:49:46.982Z,34.17
2022-12-17T18:52:16.941Z,35.88
2022-12-17T18:54:45.021Z,33.95
2022-12-17T18:57:11.723Z,32.38
2022-12-17T18:59:40.956Z,32.95
2022-12-17T19:02:12.435Z,33.47
2022-12-17T19:04:39.386Z,29.70
2022-12-17T19:07:06.023Z,29.50
2022-12-17T19:09:36.712Z,28.27
2022-12-17T19:12:09.416Z,29.30
2022-12-17T19:14:36.722Z,30.58
2022-12-17T19:17:03.927Z,30.00
2022-12-17T19:19:30.714Z,29.83
2022-12-17T19:21:59.726Z,30.92
2022-12-17T19:24:26.666Z,30.77
2022-12-17T19:26:53.264Z,27.25
2022-12-17T19:29:21.098Z,26.35
2022-12-17T19:31:48.471Z,26.48
2022-12-17T19:34:16.653Z,26.05
2022-12-17T19:36:43.905Z,27.45
2022-12-17T19:39:16.657Z,29.20
2022-12-17T19:41:44.016Z,28.00
2022-12-17T19:44:16.564Z,26.65
2022-12-17T19:46:44.126Z,26.90
2022-12-17T19:49:15.868Z,24.55
2022-12-17T19:51:44.602Z,24.60
2022-12-17T19:54:14.028Z,25.20
2022-12-17T19:56:41.223Z,26.23
2022-12-17T19:59:09.921Z,25.88
2022-12-17T20:01:41.004Z,26.30
2022-12-17T20:04:07.906Z,26.50
2022-12-17T20:06:35.749Z,26.92
2022-12-17T20:09:05.024Z,25.05
2022-12-17T20:11:34.652Z,24.65
2022-12-17T20:14:21.027Z,25.17
2022-12-17T20:16:59.541Z,25.13
2022-12-17T20:19:31.797Z,25.08
2022-12-17T20:22:00.538Z,25.02
2022-12-17T20:24:31.099Z,25.08
2022-12-17T20:26:59.301Z,26.10
2022-12-17T20:29:25.966Z,24.25
2022-12-17T20:31:53.916Z,24.60
2022-12-17T20:34:21.140Z,24.55
2022-12-17T20:36:50.168Z,23.88
2022-12-17T20:39:19.705Z,23.08
2022-12-17T20:41:51.466Z,24.33
2022-12-17T20:44:18.031Z,23.38
2022-12-17T20:46:44.673Z,22.80
2022-12-17T20:49:12.510Z,22.67
2022-12-17T20:51:39.293Z,22.40
2022-12-17T20:54:08.350Z,21.40
2022-12-17T20:56:35.922Z,23.75
2022-12-17T20:59:05.739Z,21.63
2022-12-17T21:01:34.965Z,20.63
2022-12-17T21:04:02.621Z,19.27
2022-12-17T21:06:39.964Z,18.10
2022-12-17T21:09:07.345Z,18.67
2022-12-17T21:11:35.302Z,17.63
2022-12-17T21:14:08.309Z,16.55
2022-12-17T21:16:36.383Z,18.42
2022-12-17T21:19:04.324Z,20.90
2022-12-17T21:21:34.042Z,19.52
2022-12-17T21:24:01.425Z,15.98
2022-12-17T21:26:33.745Z,15.88
2022-12-17T21:29:01.323Z,14.40
2022-12-17T21:31:33.782Z,13.30
2022-12-17T21:34:03.584Z,14.90
2022-12-17T21:36:32.628Z,12.73
2022-12-17T21:39:00.323Z,12.45
2022-12-17T21:41:33.498Z,12.30
2022-12-17T21:44:03.069Z,11.98
2022-12-17T21:46:30.896Z,11.98
2022-12-17T21:48:59.464Z,11.38
2022-12-17T21:51:26.683Z,11.73
2022-12-17T21:53:55.550Z,11.05
2022-12-17T21:56:22.768Z,11.00
2022-12-17T21:58:50.395Z,10.20
2022-12-17T22:01:22.071Z,9.60
2022-12-17T22:03:53.673Z,9.13
2022-12-17T22:06:25.957Z,8.07
2022-12-17T22:09:00.184Z,8.45
2022-12-17T22:11:31.594Z,9.13
2022-12-17T22:14:12.729Z,8.98
2022-12-17T22:16:47.287Z,8.02
2022-12-17T22:19:22.335Z,8.20
2022-12-17T22:21:50.445Z,6.38
2022-12-17T22:24:20.421Z,5.35
2022-12-17T22:26:47.992Z,4.97
2022-12-17T22:29:38.055Z,4.93
2022-12-17T22:32:28.891Z,4.25
2022-12-17T22:36:59.025Z,5.05
2022-12-17T22:40:06.204Z,3.50
2022-12-17T22:44:29.172Z,3.40
2022-12-17T22:44:51.377Z,3.33
2022-12-17T22:46:18.196Z,3.33
2022-12-17T22:48:45.216Z,3.20
2022-12-17T22:51:20.039Z,2.92
2022-12-17T22:53:56.189Z,2.50
2022-12-17T22:57:25.875Z,2.25
2022-12-17T22:59:17.635Z,2.13
2022-12-17T23:01:45.039Z,2.33
2022-12-17T23:04:14.024Z,2.47
2022-12-17T23:06:41.985Z,2.20
2022-12-17T23:09:08.729Z,2.30
2022-12-17T23:11:35.332Z,2.17
2022-12-17T23:14:02.055Z,2.05
2022-12-17T23:16:29.167Z,2.15
2022-12-17T23:18:55.809Z,3.13
2022-12-17T23:21:25.915Z,2.97
2022-12-17T23:23:54.821Z,2.03
2022-12-17T23:26:24.424Z,2.33
2022-12-17T23:29:01.888Z,2.67
2022-12-17T23:31:32.986Z,2.95
2022-12-17T23:34:00.117Z,2.70
2022-12-17T23:36:27.142Z,3.13
2022-12-17T23:38:56.654Z,3.08
2022-12-17T23:41:29.310Z,2.85
2022-12-17T23:43:56.318Z,2.90
2022-12-17T23:46:24.293Z,3.08
2022-12-17T23:48:51.213Z,3.75
2022-12-17T23:51:20.043Z,3.65
2022-12-17T23:53:46.843Z,3.53
2022-12-17T23:56:21.477Z,3.28
2022-12-17T23:58:51.749Z,3.92
